createdAt,value
2023-08-06T00:00:01.304Z,7.10
2023-08-06T00:02:28.553Z,7.13
2023-08-06T00:04:55.683Z,8.48
2023-08-06T00:07:22.905Z,10.18
2023-08-06T00:09:50.033Z,6.95
2023-08-06T00:12:17.246Z,7.32
2023-08-06T00:14:44.725Z,8.43
2023-08-06T00:17:12.173Z,6.18
2023-08-06T00:19:39.304Z,8.45
2023-08-06T00:22:06.476Z,7.05
2023-08-06T00:24:34.200Z,8.00
2023-08-06T00:27:01.523Z,7.25
2023-08-06T00:29:28.664Z,6.55
2023-08-06T00:31:55.857Z,8.55
2023-08-06T00:34:23.080Z,7.63
2023-08-06T00:36:50.226Z,7.72
2023-08-06T00:39:17.346Z,8.05
2023-08-06T00:41:44.495Z,8.45
2023-08-06T00:44:11.783Z,7.20
2023-08-06T00:46:40.935Z,7.93
2023-08-06T00:49:08.884Z,7.60
2023-08-06T00:51:36.087Z,7.10
2023-08-06T00:54:04.954Z,7.65
2023-08-06T00:56:35.168Z,7.15
2023-08-06T00:59:02.604Z,5.88
2023-08-06T01:01:29.829Z,7.18
2023-08-06T01:03:57.538Z,6.93
2023-08-06T01:06:49.661Z,6.90
2023-08-06T01:09:29.508Z,6.88
2023-08-06T01:12:24.691Z,6.78
2023-08-06T01:15:12.572Z,7.25
2023-08-06T01:17:41.636Z,8.15
2023-08-06T01:20:09.331Z,8.52
2023-08-06T01:22:36.626Z,6.70
2023-08-06T01:25:04.216Z,7.25
2023-08-06T01:27:50.972Z,6.82
2023-08-06T01:30:26.494Z,6.45
2023-08-06T01:33:01.350Z,8.27
2023-08-06T01:35:31.043Z,7.18
2023-08-06T01:38:01.776Z,8.85
2023-08-06T01:40:30.546Z,7.90
2023-08-06T01:42:58.233Z,8.70
2023-08-06T01:45:25.356Z,7.32
2023-08-06T01:47:55.069Z,7.88
2023-08-06T01:50:23.889Z,7.65
2023-08-06T01:52:55.073Z,8.13
2023-08-06T01:55:22.216Z,9.50
2023-08-06T01:57:49.931Z,11.10
2023-08-06T02:00:17.117Z,8.60
2023-08-06T02:02:44.257Z,8.95
2023-08-06T02:05:11.481Z,10.00
2023-08-06T02:07:40.849Z,9.93
2023-08-06T02:10:08.578Z,11.40
2023-08-06T02:12:35.744Z,8.98
2023-08-06T02:15:03.345Z,10.02
2023-08-06T02:17:30.606Z,9.05
2023-08-06T02:19:58.028Z,10.73
2023-08-06T02:22:28.296Z,10.15
2023-08-06T02:24:55.443Z,10.25
2023-08-06T02:27:22.602Z,9.98
2023-08-06T02:29:49.725Z,10.35
2023-08-06T02:32:16.928Z,10.07
2023-08-06T02:34:44.109Z,10.13
2023-08-06T02:37:11.222Z,12.50
2023-08-06T02:39:41.111Z,9.77
2023-08-06T02:42:08.798Z,9.10
2023-08-06T02:44:36.603Z,10.77
2023-08-06T02:47:03.868Z,11.40
2023-08-06T02:49:31.134Z,10.63
2023-08-06T02:51:58.337Z,11.35
2023-08-06T02:54:25.561Z,9.57
2023-08-06T02:56:52.691Z,10.90
2023-08-06T02:59:25.629Z,10.13
2023-08-06T03:02:11.150Z,10.35
2023-08-06T03:04:48.296Z,11.02
2023-08-06T03:07:16.068Z,9.77
2023-08-06T03:09:52.892Z,10.77
2023-08-06T03:12:21.311Z,10.50
2023-08-06T03:14:49.493Z,11.75
2023-08-06T03:17:17.750Z,10.32
2023-08-06T03:19:44.937Z,12.35
2023-08-06T03:22:13.096Z,10.10
2023-08-06T03:24:42.066Z,9.48
2023-08-06T03:27:09.715Z,11.98
2023-08-06T03:29:39.833Z,11.68
2023-08-06T03:32:07.492Z,13.40
2023-08-06T03:34:34.667Z,10.88
2023-08-06T03:37:02.726Z,12.82
2023-08-06T03:39:29.918Z,12.45
2023-08-06T03:41:57.069Z,11.23
2023-08-06T03:44:25.089Z,11.00
2023-08-06T03:46:52.282Z,13.13
2023-08-06T03:49:19.469Z,15.35
2023-08-06T03:51:47.763Z,12.07
2023-08-06T03:54:14.904Z,13.23
2023-08-06T03:56:42.502Z,14.07
2023-08-06T03:59:09.699Z,11.95
2023-08-06T04:01:36.918Z,13.25
2023-08-06T04:04:04.277Z,12.88
2023-08-06T04:06:31.395Z,13.88
2023-08-06T04:08:58.990Z,15.35
2023-08-06T04:11:26.601Z,13.48
2023-08-06T04:13:55.272Z,13.27
2023-08-06T04:16:22.910Z,12.95
2023-08-06T04:18:50.088Z,13.68
2023-08-06T04:21:17.230Z,13.43
2023-08-06T04:23:44.361Z,14.02
2023-08-06T04:26:11.832Z,12.40
2023-08-06T04:28:39.369Z,12.50
2023-08-06T04:31:06.539Z,12.63
2023-08-06T04:33:34.953Z,11.93
2023-08-06T04:36:08.298Z,12.75
2023-08-06T04:38:35.695Z,12.18
2023-08-06T04:41:04.451Z,12.73
2023-08-06T04:43:31.845Z,13.35
2023-08-06T04:45:59.013Z,9.63
2023-08-06T04:48:26.367Z,11.50
2023-08-06T04:50:53.495Z,10.65
2023-08-06T04:53:20.653Z,8.55
2023-08-06T04:55:48.311Z,9.80
2023-08-06T04:58:15.405Z,13.40
2023-08-06T05:00:43.090Z,10.07
2023-08-06T05:03:10.244Z,8.25
2023-08-06T05:05:37.366Z,8.52
2023-08-06T05:08:04.555Z,7.85
2023-08-06T05:10:31.693Z,8.07
2023-08-06T05:12:58.838Z,7.78
2023-08-06T05:15:28.939Z,9.55
2023-08-06T05:17:56.080Z,8.98
2023-08-06T05:20:23.337Z,8.95
2023-08-06T05:22:50.541Z,8.45
2023-08-06T05:25:19.492Z,8.50
2023-08-06T05:27:46.660Z,7.45
2023-08-06T05:30:13.797Z,8.82
2023-08-06T05:32:40.980Z,7.25
2023-08-06T05:35:08.147Z,8.70
2023-08-06T05:37:35.322Z,9.02
2023-08-06T05:40:03.836Z,9.27
2023-08-06T05:42:31.829Z,7.53
2023-08-06T05:44:58.956Z,8.45
2023-08-06T05:47:26.178Z,8.27
2023-08-06T05:49:53.309Z,7.78
2023-08-06T05:52:20.667Z,6.78
2023-08-06T05:54:47.808Z,6.65
2023-08-06T05:57:14.978Z,6.95
2023-08-06T05:59:42.368Z,6.05
2023-08-06T06:02:09.612Z,6.07
2023-08-06T06:04:36.765Z,6.20
2023-08-06T06:07:04.100Z,6.38
2023-08-06T06:09:31.239Z,7.57
2023-08-06T06:11:58.437Z,6.75
2023-08-06T06:14:25.538Z,7.88
2023-08-06T06:16:54.041Z,6.53
2023-08-06T06:19:21.281Z,6.75
2023-08-06T06:21:48.428Z,5.93
2023-08-06T06:24:15.553Z,6.97
2023-08-06T06:26:42.719Z,6.25
2023-08-06T06:29:09.835Z,6.05
2023-08-06T06:31:37.038Z,5.93
2023-08-06T06:34:04.185Z,6.35
2023-08-06T06:36:31.314Z,6.35
2023-08-06T06:38:58.500Z,6.28
2023-08-06T06:41:27.392Z,7.00
2023-08-06T06:43:54.530Z,5.97
2023-08-06T06:46:21.676Z,8.07
2023-08-06T06:48:48.799Z,6.90
2023-08-06T06:51:15.899Z,6.82
2023-08-06T06:53:43.110Z,7.15
2023-08-06T06:56:10.394Z,8.35
2023-08-06T06:58:39.701Z,8.48
2023-08-06T07:01:06.850Z,10.02
2023-08-06T07:03:34.083Z,8.18
2023-08-06T07:06:01.218Z,8.57
2023-08-06T07:08:28.571Z,6.28
2023-08-06T07:11:06.563Z,7.22
2023-08-06T07:13:35.479Z,6.93
2023-08-06T07:16:02.796Z,6.53
2023-08-06T07:18:30.034Z,8.25
2023-08-06T07:20:57.314Z,7.88
2023-08-06T07:23:26.294Z,6.07
2023-08-06T07:25:53.706Z,6.72
2023-08-06T07:28:21.045Z,8.90
2023-08-06T07:30:48.517Z,7.13
2023-08-06T07:33:15.836Z,5.97
2023-08-06T07:35:44.232Z,5.60
2023-08-06T07:38:11.557Z,5.30
2023-08-06T07:40:39.782Z,6.05
2023-08-06T07:43:06.973Z,6.47
2023-08-06T07:45:35.962Z,5.53
2023-08-06T07:48:03.825Z,5.25
2023-08-06T07:50:31.039Z,4.50
2023-08-06T07:52:58.226Z,5.90
2023-08-06T07:55:26.727Z,7.10
2023-08-06T07:57:55.449Z,6.07
2023-08-06T08:00:22.620Z,7.90
2023-08-06T08:02:49.997Z,8.20
2023-08-06T08:05:17.320Z,8.23
2023-08-06T08:07:45.214Z,7.65
2023-08-06T08:10:12.539Z,8.57
2023-08-06T08:12:39.652Z,8.50
2023-08-06T08:15:07.360Z,8.75
2023-08-06T08:17:35.644Z,10.30
2023-08-06T08:20:03.017Z,8.70
2023-08-06T08:22:30.273Z,8.38
2023-08-06T08:24:57.392Z,8.23
2023-08-06T08:27:24.574Z,8.02
2023-08-06T08:29:51.707Z,9.55
2023-08-06T08:32:18.984Z,8.93
2023-08-06T08:34:46.144Z,8.63
2023-08-06T08:37:14.556Z,9.70
2023-08-06T08:39:41.741Z,11.05
2023-08-06T08:42:10.939Z,8.43
2023-08-06T08:44:40.421Z,10.68
2023-08-06T08:47:09.368Z,10.10
2023-08-06T08:49:37.125Z,11.65
2023-08-06T08:52:11.241Z,8.77
2023-08-06T08:54:39.355Z,7.68
2023-08-06T08:57:06.536Z,7.05
2023-08-06T08:59:35.106Z,7.07
2023-08-06T09:02:03.072Z,7.30
2023-08-06T09:04:34.877Z,5.93
2023-08-06T09:07:03.049Z,8.25
2023-08-06T09:09:34.620Z,6.47
2023-08-06T09:12:03.418Z,5.47
2023-08-06T09:14:30.586Z,5.72
2023-08-06T09:16:58.591Z,8.05
2023-08-06T09:19:25.797Z,5.75
2023-08-06T09:21:56.651Z,7.97
2023-08-06T09:24:24.184Z,6.63
2023-08-06T09:26:51.364Z,7.95
2023-08-06T09:29:18.745Z,6.93
2023-08-06T09:31:51.702Z,5.55
2023-08-06T09:34:23.166Z,4.97
2023-08-06T09:36:54.900Z,5.20
2023-08-06T09:39:27.624Z,4.35
2023-08-06T09:41:59.712Z,6.82
2023-08-06T09:44:28.691Z,6.15
2023-08-06T09:46:57.403Z,5.90
2023-08-06T09:49:28.167Z,6.38
2023-08-06T09:51:59.320Z,6.80
2023-08-06T09:54:28.468Z,5.80
2023-08-06T09:56:56.214Z,6.07
2023-08-06T09:59:25.229Z,3.58
2023-08-06T10:01:53.367Z,3.22
2023-08-06T10:04:24.558Z,6.10
2023-08-06T10:06:53.672Z,4.22
2023-08-06T10:09:21.518Z,4.20
2023-08-06T10:11:53.786Z,4.18
2023-08-06T10:14:27.353Z,4.65
2023-08-06T10:16:57.749Z,4.22
2023-08-06T10:19:26.682Z,4.82
2023-08-06T10:22:20.070Z,5.43
2023-08-06T10:24:55.309Z,4.13
2023-08-06T10:27:32.921Z,4.25
2023-08-06T10:30:22.603Z,5.20
2023-08-06T10:32:53.699Z,3.70
2023-08-06T10:35:31.564Z,4.03
2023-08-06T10:38:00.567Z,4.00
2023-08-06T10:40:27.707Z,3.45
2023-08-06T10:42:55.136Z,4.00
2023-08-06T10:45:25.169Z,3.67
2023-08-06T10:47:53.902Z,4.22
2023-08-06T10:50:21.593Z,4.60
2023-08-06T10:52:48.915Z,6.13
2023-08-06T10:55:30.098Z,4.38
2023-08-06T10:57:58.804Z,6.72
2023-08-06T11:00:26.381Z,3.70
2023-08-06T11:02:55.998Z,3.38
2023-08-06T11:05:23.259Z,8.45
2023-08-06T11:07:52.197Z,3.05
2023-08-06T11:10:20.975Z,3.17
2023-08-06T11:12:48.148Z,2.60
2023-08-06T11:15:15.332Z,4.65
2023-08-06T11:17:43.120Z,2.45
2023-08-06T11:20:11.053Z,3.88
2023-08-06T11:22:38.749Z,3.08
2023-08-06T11:25:07.481Z,3.53
2023-08-06T11:27:34.788Z,2.92
2023-08-06T11:30:02.157Z,2.97
2023-08-06T11:32:29.421Z,4.43
2023-08-06T11:34:57.181Z,2.17
2023-08-06T11:37:25.748Z,2.80
2023-08-06T11:39:53.035Z,3.03
2023-08-06T11:42:20.403Z,3.00
2023-08-06T11:44:47.755Z,2.30
2023-08-06T11:47:17.233Z,2.92
2023-08-06T11:49:48.243Z,2.35
2023-08-06T11:52:24.246Z,3.92
2023-08-06T11:55:15.888Z,3.10
2023-08-06T11:57:46.843Z,3.05
2023-08-06T12:00:15.044Z,3.50
2023-08-06T12:02:46.120Z,3.97
2023-08-06T12:05:26.984Z,2.72
2023-08-06T12:07:57.081Z,3.70
2023-08-06T12:10:26.455Z,2.67
2023-08-06T12:12:54.965Z,3.17
2023-08-06T12:15:23.090Z,3.50
2023-08-06T12:17:50.925Z,3.58
2023-08-06T12:20:21.057Z,3.03
2023-08-06T12:22:48.258Z,3.85
2023-08-06T12:25:15.490Z,2.97
2023-08-06T12:27:44.130Z,3.15
2023-08-06T12:30:13.046Z,3.42
2023-08-06T12:32:40.537Z,3.30
2023-08-06T12:35:08.611Z,3.42
2023-08-06T12:37:36.560Z,2.55
2023-08-06T12:40:20.099Z,6.28
2023-08-06T12:42:55.011Z,6.13
2023-08-06T12:45:22.319Z,4.32
2023-08-06T12:47:50.697Z,3.60
2023-08-06T12:50:21.025Z,3.33
2023-08-06T12:52:48.170Z,2.80
2023-08-06T12:55:15.280Z,2.50
2023-08-06T13:00:13.117Z,2.67
2023-08-06T13:02:40.285Z,4.13
2023-08-06T13:05:08.047Z,3.97
2023-08-06T13:07:35.232Z,3.15
2023-08-06T13:10:02.372Z,4.38
2023-08-06T13:12:29.612Z,3.60
2023-08-06T13:14:58.404Z,2.20
2023-08-06T13:17:25.668Z,2.70
2023-08-06T13:19:52.779Z,2.65
2023-08-06T13:22:19.914Z,2.63
2023-08-06T13:24:47.014Z,4.07
2023-08-06T13:27:14.762Z,4.13
2023-08-06T13:29:41.909Z,3.85
2023-08-06T13:32:09.078Z,3.60
2023-08-06T13:34:36.228Z,2.35
2023-08-06T13:37:03.457Z,2.33
2023-08-06T13:39:30.666Z,2.50
2023-08-06T13:41:57.793Z,2.10
2023-08-06T13:44:25.039Z,1.40
2023-08-06T13:46:52.510Z,2.85
2023-08-06T13:49:19.921Z,2.42
2023-08-06T13:51:47.123Z,2.97
2023-08-06T13:54:14.218Z,3.33
2023-08-06T13:56:41.369Z,2.17
2023-08-06T13:59:09.258Z,2.75
2023-08-06T14:01:47.940Z,2.08
2023-08-06T14:04:18.219Z,1.83
2023-08-06T14:06:45.465Z,2.72
2023-08-06T14:09:15.123Z,1.20
2023-08-06T14:11:42.374Z,3.03
2023-08-06T14:14:09.482Z,1.83
2023-08-06T14:16:36.681Z,1.85
2023-08-06T14:19:04.671Z,1.83
2023-08-06T14:21:31.894Z,1.75
2023-08-06T14:23:59.001Z,1.85
2023-08-06T14:26:26.131Z,2.28
2023-08-06T14:28:55.515Z,2.30
2023-08-06T14:31:22.812Z,2.17
2023-08-06T14:33:50.009Z,2.20
2023-08-06T14:36:17.179Z,2.17
2023-08-06T14:38:57.786Z,1.60
2023-08-06T14:41:26.690Z,2.17
2023-08-06T14:43:54.851Z,2.42
2023-08-06T14:46:21.995Z,1.73
2023-08-06T14:48:49.203Z,1.83
2023-08-06T14:51:16.366Z,2.47
2023-08-06T14:53:43.584Z,1.90
2023-08-06T14:56:10.719Z,1.70
2023-08-06T14:58:37.880Z,1.45
2023-08-06T15:01:05.145Z,2.25
2023-08-06T15:03:32.751Z,2.05
2023-08-06T15:06:00.011Z,3.08
2023-08-06T15:08:27.155Z,3.03
2023-08-06T15:10:54.788Z,2.78
2023-08-06T15:13:22.278Z,2.85
2023-08-06T15:15:50.575Z,2.00
2023-08-06T15:18:17.877Z,2.55
2023-08-06T15:20:45.039Z,2.20
2023-08-06T15:23:12.139Z,3.92
2023-08-06T15:25:39.464Z,1.15
2023-08-06T15:28:07.215Z,2.50
2023-08-06T15:30:34.397Z,2.08
2023-08-06T15:33:01.544Z,1.90
2023-08-06T15:35:28.740Z,1.83
2023-08-06T15:37:55.893Z,2.08
2023-08-06T15:40:23.092Z,1.05
2023-08-06T15:42:50.289Z,1.73
2023-08-06T15:45:17.421Z,2.15
2023-08-06T15:47:44.579Z,2.00
2023-08-06T15:50:11.772Z,2.50
2023-08-06T15:52:38.996Z,2.25
2023-08-06T15:55:06.806Z,3.13
2023-08-06T15:57:34.727Z,3.22
2023-08-06T16:00:04.082Z,2.13
2023-08-06T16:02:39.161Z,2.40
2023-08-06T16:05:07.164Z,2.00
2023-08-06T16:07:35.864Z,2.78
2023-08-06T16:10:03.349Z,1.88
2023-08-06T16:12:30.533Z,2.38
2023-08-06T16:14:57.671Z,2.45
2023-08-06T16:17:24.855Z,2.42
2023-08-06T16:19:51.999Z,2.92
2023-08-06T16:22:19.549Z,2.60
2023-08-06T16:24:46.863Z,3.25
2023-08-06T16:27:13.990Z,2.20
2023-08-06T16:29:41.101Z,2.72
2023-08-06T16:32:08.366Z,2.88
2023-08-06T16:34:36.016Z,3.10
2023-08-06T16:37:03.278Z,2.70
2023-08-06T16:39:30.778Z,2.80
2023-08-06T16:42:00.001Z,3.10
2023-08-06T16:44:32.122Z,2.85
2023-08-06T16:47:01.649Z,2.88
2023-08-06T16:49:28.755Z,3.35
2023-08-06T16:51:55.900Z,4.20
2023-08-06T16:54:23.097Z,2.53
2023-08-06T16:56:50.254Z,2.35
2023-08-06T16:59:17.584Z,3.67
2023-08-06T17:01:44.705Z,3.95
2023-08-06T17:04:12.618Z,4.07
2023-08-06T17:06:39.767Z,2.88
2023-08-06T17:09:07.050Z,2.97
2023-08-06T17:11:34.271Z,3.00
2023-08-06T17:14:01.762Z,2.85
2023-08-06T17:16:29.004Z,3.88
2023-08-06T17:18:56.203Z,4.15
2023-08-06T17:21:23.325Z,2.90
2023-08-06T17:23:50.418Z,3.92
2023-08-06T17:26:17.602Z,3.60
2023-08-06T17:28:45.398Z,3.33
2023-08-06T17:31:14.049Z,3.17
2023-08-06T17:33:41.368Z,2.97
2023-08-06T17:36:08.501Z,4.05
2023-08-06T17:38:35.629Z,3.50
2023-08-06T17:41:05.648Z,3.65
2023-08-06T17:43:32.893Z,3.30
2023-08-06T17:46:00.012Z,3.35
2023-08-06T17:48:27.213Z,3.97
2023-08-06T17:50:54.361Z,3.35
2023-08-06T17:53:21.467Z,3.10
2023-08-06T17:55:49.125Z,3.10
2023-08-06T17:58:16.524Z,4.57
2023-08-06T18:00:49.264Z,4.05
2023-08-06T18:03:18.133Z,3.35
2023-08-06T18:05:45.425Z,3.63
2023-08-06T18:08:12.843Z,3.00
2023-08-06T18:10:40.391Z,3.72
2023-08-06T18:13:10.030Z,2.72
2023-08-06T18:15:37.170Z,2.80
2023-08-06T18:18:04.419Z,3.40
2023-08-06T18:20:31.983Z,2.80
2023-08-06T18:22:59.104Z,2.85
2023-08-06T18:25:26.265Z,3.80
2023-08-06T18:27:55.078Z,3.50
2023-08-06T18:30:22.288Z,3.00
2023-08-06T18:32:49.569Z,2.53
2023-08-06T18:35:16.699Z,3.25
2023-08-06T18:37:43.951Z,2.53
2023-08-06T18:40:11.460Z,3.00
2023-08-06T18:42:41.532Z,2.88
2023-08-06T18:45:10.721Z,2.50
2023-08-06T18:47:37.871Z,3.60
2023-08-06T18:50:05.751Z,3.72
2023-08-06T18:52:32.853Z,2.45
2023-08-06T18:54:59.974Z,3.30
2023-08-06T18:57:29.979Z,2.80
2023-08-06T18:59:57.229Z,4.68
2023-08-06T19:02:24.419Z,3.20
2023-08-06T19:04:52.032Z,2.63
2023-08-06T19:07:19.271Z,2.83
2023-08-06T19:09:47.751Z,3.00
2023-08-06T19:12:16.206Z,4.13
2023-08-06T19:14:43.467Z,3.45
2023-08-06T19:17:10.615Z,2.50
2023-08-06T19:19:37.844Z,3.10
2023-08-06T19:22:05.212Z,3.22
2023-08-06T19:24:32.329Z,2.40
2023-08-06T19:26:59.431Z,2.30
2023-08-06T19:29:26.677Z,2.60
2023-08-06T19:34:24.353Z,2.70
2023-08-06T19:36:51.474Z,2.60
2023-08-06T19:39:18.775Z,2.67
2023-08-06T19:41:45.963Z,2.72
2023-08-06T19:44:13.124Z,2.50
2023-08-06T19:46:40.301Z,2.28
2023-08-06T19:49:07.465Z,3.88
2023-08-06T19:51:38.099Z,2.30
2023-08-06T19:54:05.256Z,2.50
2023-08-06T19:56:32.793Z,3.83
2023-08-06T19:58:59.961Z,3.38
2023-08-06T20:01:28.904Z,3.13
2023-08-06T20:03:56.342Z,2.70
2023-08-06T20:06:32.612Z,3.45
2023-08-06T20:08:59.851Z,3.08
2023-08-06T20:11:27.162Z,3.65
2023-08-06T20:13:54.439Z,3.42
2023-08-06T20:16:21.683Z,2.78
2023-08-06T20:18:48.912Z,2.85
2023-08-06T20:21:17.239Z,3.83
2023-08-06T20:23:44.544Z,2.88
2023-08-06T20:26:11.724Z,4.25
2023-08-06T20:28:38.852Z,4.25
2023-08-06T20:31:06.096Z,2.65
2023-08-06T20:33:34.660Z,2.38
2023-08-06T20:36:01.827Z,3.72
2023-08-06T20:38:29.074Z,2.70
2023-08-06T20:40:56.774Z,2.28
2023-08-06T20:43:27.182Z,2.88
2023-08-06T20:45:55.835Z,2.75
2023-08-06T20:48:23.430Z,2.65
2023-08-06T20:50:51.313Z,2.30
2023-08-06T20:53:18.666Z,1.88
2023-08-06T20:55:45.822Z,3.03
2023-08-06T20:58:13.027Z,3.85
2023-08-06T21:00:40.255Z,2.60
2023-08-06T21:03:07.433Z,2.40
2023-08-06T21:05:34.853Z,2.40
2023-08-06T21:08:01.991Z,2.50
2023-08-06T21:10:29.146Z,3.85
2023-08-06T21:12:56.358Z,2.83
2023-08-06T21:15:23.492Z,3.03
2023-08-06T21:17:50.668Z,4.68
2023-08-06T21:20:19.607Z,2.17
2023-08-06T21:22:46.774Z,2.92
2023-08-06T21:25:13.952Z,2.92
2023-08-06T21:27:43.849Z,2.25
2023-08-06T21:30:13.375Z,2.75
2023-08-06T21:32:40.958Z,4.75
2023-08-06T21:35:11.205Z,3.25
2023-08-06T21:37:38.789Z,3.58
2023-08-06T21:40:06.420Z,1.92
2023-08-06T21:42:33.617Z,3.17
2023-08-06T21:45:02.701Z,2.90
2023-08-06T21:47:29.890Z,2.80
2023-08-06T21:49:57.015Z,2.13
2023-08-06T21:52:24.176Z,3.38
2023-08-06T21:54:51.789Z,2.58
2023-08-06T21:57:18.951Z,2.50
2023-08-06T21:59:46.084Z,4.38
2023-08-06T22:02:13.210Z,3.08
2023-08-06T22:04:40.349Z,3.63
2023-08-06T22:07:07.516Z,3.10
2023-08-06T22:09:34.713Z,2.72
2023-08-06T22:12:01.871Z,2.90
2023-08-06T22:14:29.015Z,2.70
2023-08-06T22:16:56.181Z,2.75
2023-08-06T22:19:23.313Z,2.83
2023-08-06T22:21:50.517Z,2.75
2023-08-06T22:24:17.750Z,3.65
2023-08-06T22:26:44.863Z,4.00
2023-08-06T22:29:12.030Z,3.83
2023-08-06T22:31:39.121Z,2.75
2023-08-06T22:34:06.270Z,2.83
2023-08-06T22:36:33.383Z,3.13
2023-08-06T22:39:00.574Z,2.60
2023-08-06T22:41:27.772Z,2.50
2023-08-06T22:43:54.992Z,3.13
2023-08-06T22:46:22.861Z,3.03
2023-08-06T22:48:50.063Z,3.00
2023-08-06T22:51:17.772Z,2.97
2023-08-06T22:53:45.266Z,2.92
2023-08-06T22:56:12.446Z,4.03
2023-08-06T22:58:39.648Z,3.95
2023-08-06T23:01:07.444Z,3.13
2023-08-06T23:03:35.516Z,3.22
2023-08-06T23:06:02.877Z,3.78
2023-08-06T23:08:30.079Z,4.63
2023-08-06T23:10:57.269Z,3.63
2023-08-06T23:13:24.415Z,3.05
2023-08-06T23:15:51.617Z,4.93
2023-08-06T23:18:18.761Z,5.43
2023-08-06T23:20:46.202Z,3.00
2023-08-06T23:23:13.323Z,3.58
2023-08-06T23:25:40.494Z,4.13
2023-08-06T23:28:07.661Z,5.63
2023-08-06T23:30:34.853Z,4.75
2023-08-06T23:33:02.724Z,6.10
2023-08-06T23:35:30.025Z,3.90
2023-08-06T23:37:57.182Z,3.25
2023-08-06T23:40:24.321Z,5.35
2023-08-06T23:42:51.462Z,4.18
2023-08-06T23:45:21.248Z,5.63
2023-08-06T23:47:48.408Z,3.92
2023-08-06T23:50:16.647Z,4.28
2023-08-06T23:52:43.862Z,4.80
2023-08-06T23:55:11.506Z,4.25
2023-08-06T23:57:38.815Z,4.03
